Aviation Digital Data Service (ADDS)

Output produced by METARs form (0803 UTC 23 April 2017)
found at http://www.aviationweather.gov/adds/metars/
 
KDOV 230758Z AUTO 35008KT 10SM BKN180 09/09 A3004 RMK AO2 SLP176 T00850085 $
TAF KDOV 230000Z 2300/2406 36012KT 9999 OVC060 QNH2995INS 
     BECMG 2305/2306 03009KT 9999 SCT010 BKN060 QNH2999INS 
     BECMG 2317/2318 13006KT 9999 FEW030 BKN200 QNH3008INS TX15/2322Z TN06/2309Z